sensor_id;sensor_type;location;lat;lon;timestamp;temperature;humidity
7822;DHT22;3956;50.558;9.678;2023-03-01T00:00:26;-1.30;55.40
7822;DHT22;3956;50.558;9.678;2023-03-01T00:02:56;-1.30;53.80
7822;DHT22;3956;50.558;9.678;2023-03-01T00:05:26;-1.30;53.20
7822;DHT22;3956;50.558;9.678;2023-03-01T00:07:58;-1.20;51.60
7822;DHT22;3956;50.558;9.678;2023-03-01T00:10:27;-1.20;49.20
7822;DHT22;3956;50.558;9.678;2023-03-01T00:12:58;-1.10;48.60
7822;DHT22;3956;50.558;9.678;2023-03-01T00:15:28;-1.10;47.90
7822;DHT22;3956;50.558;9.678;2023-03-01T00:17:57;-1.10;47.40
7822;DHT22;3956;50.558;9.678;2023-03-01T00:20:27;-1.10;46.90
7822;DHT22;3956;50.558;9.678;2023-03-01T00:23:02;-1.10;49.90
7822;DHT22;3956;50.558;9.678;2023-03-01T00:25:41;-1.10;51.10
7822;DHT22;3956;50.558;9.678;2023-03-01T00:28:13;-1.10;45.50
7822;DHT22;3956;50.558;9.678;2023-03-01T00:30:43;-1.10;49.30
7822;DHT22;3956;50.558;9.678;2023-03-01T00:33:12;-1.20;49.60
7822;DHT22;3956;50.558;9.678;2023-03-01T00:35:43;-1.20;49.70
7822;DHT22;3956;50.558;9.678;2023-03-01T00:38:14;-1.20;50.60
7822;DHT22;3956;50.558;9.678;2023-03-01T00:40:46;-1.30;55.90
7822;DHT22;3956;50.558;9.678;2023-03-01T00:43:15;-1.40;54.30
7822;DHT22;3956;50.558;9.678;2023-03-01T00:45:45;-1.30;56.00
7822;DHT22;3956;50.558;9.678;2023-03-01T00:48:16;-1.30;56.10
7822;DHT22;3956;50.558;9.678;2023-03-01T00:50:46;-1.30;57.80
7822;DHT22;3956;50.558;9.678;2023-03-01T00:53:17;-1.30;54.80
7822;DHT22;3956;50.558;9.678;2023-03-01T00:55:45;-1.30;53.40
7822;DHT22;3956;50.558;9.678;2023-03-01T00:58:13;-1.30;55.40
7822;DHT22;3956;50.558;9.678;2023-03-01T01:00:43;-1.30;52.30
7822;DHT22;3956;50.558;9.678;2023-03-01T01:03:13;-1.30;60.50
7822;DHT22;3956;50.558;9.678;2023-03-01T01:05:42;-1.40;63.00
7822;DHT22;3956;50.558;9.678;2023-03-01T01:08:10;-1.40;64.50
7822;DHT22;3956;50.558;9.678;2023-03-01T01:10:41;-1.50;67.40
7822;DHT22;3956;50.558;9.678;2023-03-01T01:13:12;-1.50;70.90
7822;DHT22;3956;50.558;9.678;2023-03-01T01:15:42;-1.50;70.80
7822;DHT22;3956;50.558;9.678;2023-03-01T01:18:11;-1.50;70.10
7822;DHT22;3956;50.558;9.678;2023-03-01T01:20:40;-1.50;76.20
7822;DHT22;3956;50.558;9.678;2023-03-01T01:23:09;-1.50;76.30
7822;DHT22;3956;50.558;9.678;2023-03-01T01:25:37;-1.50;74.20
7822;DHT22;3956;50.558;9.678;2023-03-01T01:28:07;-1.60;74.80
7822;DHT22;3956;50.558;9.678;2023-03-01T01:30:38;-1.60;75.30
7822;DHT22;3956;50.558;9.678;2023-03-01T01:33:07;-1.60;74.40
7822;DHT22;3956;50.558;9.678;2023-03-01T01:35:36;-1.50;75.50
7822;DHT22;3956;50.558;9.678;2023-03-01T01:38:05;-1.50;70.40
7822;DHT22;3956;50.558;9.678;2023-03-01T01:40:35;-1.50;72.90
7822;DHT22;3956;50.558;9.678;2023-03-01T01:43:21;-1.50;70.20
7822;DHT22;3956;50.558;9.678;2023-03-01T01:45:55;-1.50;69.40
7822;DHT22;3956;50.558;9.678;2023-03-01T01:48:28;-1.50;69.50
7822;DHT22;3956;50.558;9.678;2023-03-01T01:51:11;-1.50;70.30
7822;DHT22;3956;50.558;9.678;2023-03-01T01:53:40;-1.50;71.60
7822;DHT22;3956;50.558;9.678;2023-03-01T01:56:11;-1.50;71.90
7822;DHT22;3956;50.558;9.678;2023-03-01T01:58:43;-1.50;70.90
7822;DHT22;3956;50.558;9.678;2023-03-01T02:01:15;-1.50;72.50
7822;DHT22;3956;50.558;9.678;2023-03-01T02:03:51;-1.50;95.70
7822;DHT22;3956;50.558;9.678;2023-03-01T02:06:25;-1.60;79.50
7822;DHT22;3956;50.558;9.678;2023-03-01T02:09:06;-1.70;77.60
7822;DHT22;3956;50.558;9.678;2023-03-01T02:11:37;-1.60;78.90
7822;DHT22;3956;50.558;9.678;2023-03-01T02:14:07;-1.60;76.20
7822;DHT22;3956;50.558;9.678;2023-03-01T02:16:36;-1.60;74.40
7822;DHT22;3956;50.558;9.678;2023-03-01T02:19:06;-1.60;73.10
7822;DHT22;3956;50.558;9.678;2023-03-01T02:21:47;-1.70;77.40
7822;DHT22;3956;50.558;9.678;2023-03-01T02:24:27;-1.70;77.40
7822;DHT22;3956;50.558;9.678;2023-03-01T02:27:00;-1.60;77.10
7822;DHT22;3956;50.558;9.678;2023-03-01T02:29:32;-1.60;74.40
7822;DHT22;3956;50.558;9.678;2023-03-01T02:32:02;-1.70;79.00
7822;DHT22;3956;50.558;9.678;2023-03-01T02:34:33;-1.70;80.70
7822;DHT22;3956;50.558;9.678;2023-03-01T02:37:08;-1.70;83.10
7822;DHT22;3956;50.558;9.678;2023-03-01T02:39:42;-1.70;86.20
7822;DHT22;3956;50.558;9.678;2023-03-01T02:42:13;-1.80;90.30
7822;DHT22;3956;50.558;9.678;2023-03-01T02:44:45;-1.80;87.90
7822;DHT22;3956;50.558;9.678;2023-03-01T02:47:14;-1.80;86.60
7822;DHT22;3956;50.558;9.678;2023-03-01T02:49:42;-1.70;84.80
7822;DHT22;3956;50.558;9.678;2023-03-01T02:52:28;-1.80;86.50
7822;DHT22;3956;50.558;9.678;2023-03-01T02:55:02;-1.80;84.30
7822;DHT22;3956;50.558;9.678;2023-03-01T02:57:33;-1.80;83.80
7822;DHT22;3956;50.558;9.678;2023-03-01T03:00:06;-1.80;85.90
7822;DHT22;3956;50.558;9.678;2023-03-01T03:02:36;-1.80;85.00
7822;DHT22;3956;50.558;9.678;2023-03-01T03:05:10;-1.80;87.40
7822;DHT22;3956;50.558;9.678;2023-03-01T03:07:41;-1.90;86.70
7822;DHT22;3956;50.558;9.678;2023-03-01T03:10:13;-1.90;89.80
7822;DHT22;3956;50.558;9.678;2023-03-01T03:12:43;-1.90;88.40
7822;DHT22;3956;50.558;9.678;2023-03-01T03:15:13;-1.90;87.70
7822;DHT22;3956;50.558;9.678;2023-03-01T03:17:42;-1.90;88.60
7822;DHT22;3956;50.558;9.678;2023-03-01T03:20:15;-1.90;90.90
7822;DHT22;3956;50.558;9.678;2023-03-01T03:22:49;-2.00;90.50
7822;DHT22;3956;50.558;9.678;2023-03-01T03:25:21;-1.90;89.60
7822;DHT22;3956;50.558;9.678;2023-03-01T03:27:52;-1.90;86.80
7822;DHT22;3956;50.558;9.678;2023-03-01T03:30:27;-1.80;85.70
7822;DHT22;3956;50.558;9.678;2023-03-01T03:32:57;-1.90;83.90
7822;DHT22;3956;50.558;9.678;2023-03-01T03:35:30;-1.80;80.50
7822;DHT22;3956;50.558;9.678;2023-03-01T03:38:07;-1.80;80.10
7822;DHT22;3956;50.558;9.678;2023-03-01T03:40:47;-1.70;77.00
7822;DHT22;3956;50.558;9.678;2023-03-01T03:43:43;-1.70;78.10
7822;DHT22;3956;50.558;9.678;2023-03-01T03:46:27;-1.70;78.20
7822;DHT22;3956;50.558;9.678;2023-03-01T03:48:56;-1.70;80.50
7822;DHT22;3956;50.558;9.678;2023-03-01T03:51:25;-1.70;81.30
7822;DHT22;3956;50.558;9.678;2023-03-01T03:54:02;-1.60;82.30
7822;DHT22;3956;50.558;9.678;2023-03-01T03:56:31;-1.70;82.20
7822;DHT22;3956;50.558;9.678;2023-03-01T03:59:02;-1.60;81.90
7822;DHT22;3956;50.558;9.678;2023-03-01T04:01:39;-1.60;78.30
7822;DHT22;3956;50.558;9.678;2023-03-01T04:04:07;-1.60;85.50
7822;DHT22;3956;50.558;9.678;2023-03-01T04:06:37;-1.70;85.40
7822;DHT22;3956;50.558;9.678;2023-03-01T04:09:07;-1.70;89.80
7822;DHT22;3956;50.558;9.678;2023-03-01T04:11:38;-1.70;87.50
7822;DHT22;3956;50.558;9.678;2023-03-01T04:14:11;-1.60;83.10
7822;DHT22;3956;50.558;9.678;2023-03-01T04:16:40;-1.60;83.30
7822;DHT22;3956;50.558;9.678;2023-03-01T04:19:10;-1.60;81.50
7822;DHT22;3956;50.558;9.678;2023-03-01T04:21:39;-1.60;79.00
7822;DHT22;3956;50.558;9.678;2023-03-01T04:24:10;-1.60;78.40
7822;DHT22;3956;50.558;9.678;2023-03-01T04:26:40;-1.70;79.30
7822;DHT22;3956;50.558;9.678;2023-03-01T04:29:08;-1.70;80.40
7822;DHT22;3956;50.558;9.678;2023-03-01T04:31:37;-1.70;84.90
7822;DHT22;3956;50.558;9.678;2023-03-01T04:34:14;-1.70;83.40
7822;DHT22;3956;50.558;9.678;2023-03-01T04:36:46;-1.70;86.50
7822;DHT22;3956;50.558;9.678;2023-03-01T04:39:16;-1.70;83.80
7822;DHT22;3956;50.558;9.678;2023-03-01T04:41:46;-1.70;84.60
7822;DHT22;3956;50.558;9.678;2023-03-01T04:44:15;-1.70;85.70
7822;DHT22;3956;50.558;9.678;2023-03-01T04:46:44;-1.60;85.70
7822;DHT22;3956;50.558;9.678;2023-03-01T04:49:15;-1.70;88.80
7822;DHT22;3956;50.558;9.678;2023-03-01T04:51:52;-1.70;89.20
7822;DHT22;3956;50.558;9.678;2023-03-01T04:54:36;-1.70;87.70
7822;DHT22;3956;50.558;9.678;2023-03-01T04:57:09;-1.80;87.20
7822;DHT22;3956;50.558;9.678;2023-03-01T05:00:06;-1.80;91.20
7822;DHT22;3956;50.558;9.678;2023-03-01T05:02:50;-1.80;92.90
7822;DHT22;3956;50.558;9.678;2023-03-01T05:05:30;-1.90;93.70
7822;DHT22;3956;50.558;9.678;2023-03-01T05:08:04;-1.90;95.80
7822;DHT22;3956;50.558;9.678;2023-03-01T05:10:39;-1.90;96.30
7822;DHT22;3956;50.558;9.678;2023-03-01T05:13:12;-1.90;97.40
7822;DHT22;3956;50.558;9.678;2023-03-01T05:15:44;-1.90;99.10
7822;DHT22;3956;50.558;9.678;2023-03-01T05:18:37;-1.90;99.90
7822;DHT22;3956;50.558;9.678;2023-03-01T05:21:38;-1.90;97.40
7822;DHT22;3956;50.558;9.678;2023-03-01T05:24:28;-1.90;96.40
7822;DHT22;3956;50.558;9.678;2023-03-01T05:26:58;-1.90;95.50
7822;DHT22;3956;50.558;9.678;2023-03-01T05:29:28;-1.80;95.00
7822;DHT22;3956;50.558;9.678;2023-03-01T05:31:58;-1.80;95.40
7822;DHT22;3956;50.558;9.678;2023-03-01T05:34:35;-1.90;94.70
7822;DHT22;3956;50.558;9.678;2023-03-01T05:37:12;-1.80;94.50
7822;DHT22;3956;50.558;9.678;2023-03-01T05:39:42;-1.90;96.00
7822;DHT22;3956;50.558;9.678;2023-03-01T05:42:11;-2.00;96.50
7822;DHT22;3956;50.558;9.678;2023-03-01T05:44:41;-2.10;99.90
7822;DHT22;3956;50.558;9.678;2023-03-01T05:47:14;-2.00;99.90
7822;DHT22;3956;50.558;9.678;2023-03-01T05:49:50;-2.10;99.90
7822;DHT22;3956;50.558;9.678;2023-03-01T05:52:24;-2.10;99.90
7822;DHT22;3956;50.558;9.678;2023-03-01T05:54:54;-2.00;99.90
7822;DHT22;3956;50.558;9.678;2023-03-01T05:57:23;-2.10;99.90
7822;DHT22;3956;50.558;9.678;2023-03-01T05:59:53;-2.10;99.90
7822;DHT22;3956;50.558;9.678;2023-03-01T06:02:23;-2.20;99.90
7822;DHT22;3956;50.558;9.678;2023-03-01T06:04:52;-2.20;99.90
7822;DHT22;3956;50.558;9.678;2023-03-01T06:07:28;-2.20;99.90
7822;DHT22;3956;50.558;9.678;2023-03-01T06:09:58;-2.30;99.90
7822;DHT22;3956;50.558;9.678;2023-03-01T06:12:30;-2.20;99.90
7822;DHT22;3956;50.558;9.678;2023-03-01T06:14:59;-2.20;99.90
7822;DHT22;3956;50.558;9.678;2023-03-01T06:17:33;-2.10;99.90
7822;DHT22;3956;50.558;9.678;2023-03-01T06:20:22;-2.20;99.90
7822;DHT22;3956;50.558;9.678;2023-03-01T06:23:21;-2.10;99.90
7822;DHT22;3956;50.558;9.678;2023-03-01T06:26:21;-2.10;99.90
7822;DHT22;3956;50.558;9.678;2023-03-01T06:29:06;-2.10;99.90
7822;DHT22;3956;50.558;9.678;2023-03-01T06:31:38;-2.10;99.90
7822;DHT22;3956;50.558;9.678;2023-03-01T06:35:01;-2.00;99.90
7822;DHT22;3956;50.558;9.678;2023-03-01T06:38:41;-2.00;99.90
7822;DHT22;3956;50.558;9.678;2023-03-01T06:41:46;-2.00;99.90
7822;DHT22;3956;50.558;9.678;2023-03-01T06:44:21;-2.00;99.90
7822;DHT22;3956;50.558;9.678;2023-03-01T06:46:58;-1.90;99.90
7822;DHT22;3956;50.558;9.678;2023-03-01T06:49:26;-1.90;99.90
7822;DHT22;3956;50.558;9.678;2023-03-01T06:52:00;-1.90;99.90
7822;DHT22;3956;50.558;9.678;2023-03-01T06:54:31;-1.90;99.90
7822;DHT22;3956;50.558;9.678;2023-03-01T06:57:00;-1.90;99.90
7822;DHT22;3956;50.558;9.678;2023-03-01T06:59:29;-1.80;99.30
7822;DHT22;3956;50.558;9.678;2023-03-01T07:02:00;-1.80;98.10
7822;DHT22;3956;50.558;9.678;2023-03-01T07:04:31;-1.70;97.10
7822;DHT22;3956;50.558;9.678;2023-03-01T07:07:00;-1.60;98.60
7822;DHT22;3956;50.558;9.678;2023-03-01T07:09:33;-1.60;96.90
7822;DHT22;3956;50.558;9.678;2023-03-01T07:12:22;-1.50;99.90
7822;DHT22;3956;50.558;9.678;2023-03-01T07:14:57;-1.50;95.70
7822;DHT22;3956;50.558;9.678;2023-03-01T07:17:38;-1.50;94.90
7822;DHT22;3956;50.558;9.678;2023-03-01T07:20:11;-1.40;93.50
7822;DHT22;3956;50.558;9.678;2023-03-01T07:22:40;-1.40;91.20
7822;DHT22;3956;50.558;9.678;2023-03-01T07:25:11;-1.30;88.60
7822;DHT22;3956;50.558;9.678;2023-03-01T07:27:41;-1.10;88.20
7822;DHT22;3956;50.558;9.678;2023-03-01T07:30:16;0.10;60.60
7822;DHT22;3956;50.558;9.678;2023-03-01T07:32:54;3.20;1.00
7822;DHT22;3956;50.558;9.678;2023-03-01T07:35:38;4.20;1.00
7822;DHT22;3956;50.558;9.678;2023-03-01T07:38:30;5.70;1.00
7822;DHT22;3956;50.558;9.678;2023-03-01T07:44:33;6.50;1.00
7822;DHT22;3956;50.558;9.678;2023-03-01T07:47:06;6.80;1.00
7822;DHT22;3956;50.558;9.678;2023-03-01T07:49:58;7.30;1.00
7822;DHT22;3956;50.558;9.678;2023-03-01T07:52:59;6.30;1.00
7822;DHT22;3956;50.558;9.678;2023-03-01T07:55:28;7.00;1.00
7822;DHT22;3956;50.558;9.678;2023-03-01T07:57:57;7.30;1.00
7822;DHT22;3956;50.558;9.678;2023-03-01T08:00:27;7.10;1.00
7822;DHT22;3956;50.558;9.678;2023-03-01T08:02:59;7.20;1.00
7822;DHT22;3956;50.558;9.678;2023-03-01T08:05:58;7.30;1.00
7822;DHT22;3956;50.558;9.678;2023-03-01T08:08:29;7.70;1.00
7822;DHT22;3956;50.558;9.678;2023-03-01T08:11:16;8.50;1.00
7822;DHT22;3956;50.558;9.678;2023-03-01T08:14:18;7.70;1.00
7822;DHT22;3956;50.558;9.678;2023-03-01T08:17:04;8.30;1.00
7822;DHT22;3956;50.558;9.678;2023-03-01T08:19:37;8.20;1.00
7822;DHT22;3956;50.558;9.678;2023-03-01T08:22:07;5.90;1.00
7822;DHT22;3956;50.558;9.678;2023-03-01T08:24:41;6.80;1.00
7822;DHT22;3956;50.558;9.678;2023-03-01T08:27:15;6.80;1.00
7822;DHT22;3956;50.558;9.678;2023-03-01T08:29:44;7.50;1.00
7822;DHT22;3956;50.558;9.678;2023-03-01T08:32:20;8.00;1.00
7822;DHT22;3956;50.558;9.678;2023-03-01T08:35:15;8.40;1.00
7822;DHT22;3956;50.558;9.678;2023-03-01T08:38:01;8.90;1.00
7822;DHT22;3956;50.558;9.678;2023-03-01T08:40:31;8.70;1.00
7822;DHT22;3956;50.558;9.678;2023-03-01T08:43:00;8.70;1.00
7822;DHT22;3956;50.558;9.678;2023-03-01T08:45:29;8.20;1.00
7822;DHT22;3956;50.558;9.678;2023-03-01T08:48:04;9.30;1.00
7822;DHT22;3956;50.558;9.678;2023-03-01T08:50:32;9.20;1.00
7822;DHT22;3956;50.558;9.678;2023-03-01T08:53:10;9.00;1.00
7822;DHT22;3956;50.558;9.678;2023-03-01T08:56:27;8.10;1.00
7822;DHT22;3956;50.558;9.678;2023-03-01T08:59:56;7.40;1.00
7822;DHT22;3956;50.558;9.678;2023-03-01T09:03:00;9.30;1.00
7822;DHT22;3956;50.558;9.678;2023-03-01T09:05:34;9.50;1.00
7822;DHT22;3956;50.558;9.678;2023-03-01T09:08:04;8.60;1.00
7822;DHT22;3956;50.558;9.678;2023-03-01T09:10:53;7.30;1.00
7822;DHT22;3956;50.558;9.678;2023-03-01T09:14:20;5.80;1.00
7822;DHT22;3956;50.558;9.678;2023-03-01T09:16:50;3.40;1.00
7822;DHT22;3956;50.558;9.678;2023-03-01T09:19:28;2.90;1.00
7822;DHT22;3956;50.558;9.678;2023-03-01T09:22:19;2.70;2.60
7822;DHT22;3956;50.558;9.678;2023-03-01T09:25:23;2.60;4.90
7822;DHT22;3956;50.558;9.678;2023-03-01T09:27:56;2.70;2.80
7822;DHT22;3956;50.558;9.678;2023-03-01T09:30:34;2.50;1.00
7822;DHT22;3956;50.558;9.678;2023-03-01T09:33:05;2.80;1.00
7822;DHT22;3956;50.558;9.678;2023-03-01T09:35:37;2.80;1.00
7822;DHT22;3956;50.558;9.678;2023-03-01T09:38:27;2.20;1.00
7822;DHT22;3956;50.558;9.678;2023-03-01T09:41:47;2.20;1.00
7822;DHT22;3956;50.558;9.678;2023-03-01T09:44:42;2.60;1.00
7822;DHT22;3956;50.558;9.678;2023-03-01T09:47:22;2.40;1.00
7822;DHT22;3956;50.558;9.678;2023-03-01T09:53:13;2.60;1.00
7822;DHT22;3956;50.558;9.678;2023-03-01T09:55:44;3.10;1.00
7822;DHT22;3956;50.558;9.678;2023-03-01T09:58:45;3.40;1.00
7822;DHT22;3956;50.558;9.678;2023-03-01T10:01:34;3.30;1.00
7822;DHT22;3956;50.558;9.678;2023-03-01T10:05:03;3.30;1.00
7822;DHT22;3956;50.558;9.678;2023-03-01T10:08:35;3.10;1.00
7822;DHT22;3956;50.558;9.678;2023-03-01T10:11:20;3.20;1.00
7822;DHT22;3956;50.558;9.678;2023-03-01T10:13:58;2.90;1.00
7822;DHT22;3956;50.558;9.678;2023-03-01T10:16:38;3.00;1.00
7822;DHT22;3956;50.558;9.678;2023-03-01T10:19:14;3.00;1.00
7822;DHT22;3956;50.558;9.678;2023-03-01T10:21:48;3.50;1.00
7822;DHT22;3956;50.558;9.678;2023-03-01T10:24:19;3.40;1.00
7822;DHT22;3956;50.558;9.678;2023-03-01T10:26:53;3.30;1.00
7822;DHT22;3956;50.558;9.678;2023-03-01T10:29:29;3.30;1.00
7822;DHT22;3956;50.558;9.678;2023-03-01T10:32:01;3.20;1.00
7822;DHT22;3956;50.558;9.678;2023-03-01T10:34:43;3.30;1.00
7822;DHT22;3956;50.558;9.678;2023-03-01T10:37:25;3.30;1.00
7822;DHT22;3956;50.558;9.678;2023-03-01T10:39:57;3.40;1.00
7822;DHT22;3956;50.558;9.678;2023-03-01T10:42:27;3.80;1.00
7822;DHT22;3956;50.558;9.678;2023-03-01T10:44:57;3.60;1.00
7822;DHT22;3956;50.558;9.678;2023-03-01T10:47:27;3.60;1.00
7822;DHT22;3956;50.558;9.678;2023-03-01T10:49:59;3.80;1.00
7822;DHT22;3956;50.558;9.678;2023-03-01T10:52:37;4.00;1.00
7822;DHT22;3956;50.558;9.678;2023-03-01T10:55:23;3.80;1.00
7822;DHT22;3956;50.558;9.678;2023-03-01T10:58:08;4.00;1.00
7822;DHT22;3956;50.558;9.678;2023-03-01T11:00:47;3.80;1.00
7822;DHT22;3956;50.558;9.678;2023-03-01T11:03:19;3.80;1.00
7822;DHT22;3956;50.558;9.678;2023-03-01T11:05:56;4.30;1.00
7822;DHT22;3956;50.558;9.678;2023-03-01T11:08:46;4.30;1.00
7822;DHT22;3956;50.558;9.678;2023-03-01T11:11:37;4.10;1.00
7822;DHT22;3956;50.558;9.678;2023-03-01T11:14:19;4.20;1.00
7822;DHT22;3956;50.558;9.678;2023-03-01T11:17:02;4.40;1.00
7822;DHT22;3956;50.558;9.678;2023-03-01T11:19:32;4.40;1.00
7822;DHT22;3956;50.558;9.678;2023-03-01T11:22:03;4.30;1.00
7822;DHT22;3956;50.558;9.678;2023-03-01T11:24:40;4.40;1.00
7822;DHT22;3956;50.558;9.678;2023-03-01T11:27:19;4.30;1.00
7822;DHT22;3956;50.558;9.678;2023-03-01T11:29:54;4.20;1.00
7822;DHT22;3956;50.558;9.678;2023-03-01T11:32:34;4.50;1.00
7822;DHT22;3956;50.558;9.678;2023-03-01T11:35:47;4.60;1.00
7822;DHT22;3956;50.558;9.678;2023-03-01T11:38:51;4.70;1.00
7822;DHT22;3956;50.558;9.678;2023-03-01T11:42:40;5.00;1.00
7822;DHT22;3956;50.558;9.678;2023-03-01T11:46:08;5.00;1.00
7822;DHT22;3956;50.558;9.678;2023-03-01T11:48:52;4.90;1.00
7822;DHT22;3956;50.558;9.678;2023-03-01T11:51:40;5.00;1.00
7822;DHT22;3956;50.558;9.678;2023-03-01T11:54:20;5.00;1.00
7822;DHT22;3956;50.558;9.678;2023-03-01T11:56:54;5.10;1.00
7822;DHT22;3956;50.558;9.678;2023-03-01T12:00:04;5.00;1.00
7822;DHT22;3956;50.558;9.678;2023-03-01T12:06:43;5.10;1.00
7822;DHT22;3956;50.558;9.678;2023-03-01T12:09:52;4.90;1.00
7822;DHT22;3956;50.558;9.678;2023-03-01T12:12:32;5.40;1.00
7822;DHT22;3956;50.558;9.678;2023-03-01T12:18:47;5.40;1.00
7822;DHT22;3956;50.558;9.678;2023-03-01T12:21:35;5.90;1.00
7822;DHT22;3956;50.558;9.678;2023-03-01T12:24:53;5.40;1.00
7822;DHT22;3956;50.558;9.678;2023-03-01T12:28:13;5.30;1.00
7822;DHT22;3956;50.558;9.678;2023-03-01T12:34:39;5.20;1.00
7822;DHT22;3956;50.558;9.678;2023-03-01T12:40:29;5.50;1.00
7822;DHT22;3956;50.558;9.678;2023-03-01T12:43:17;5.70;1.00
7822;DHT22;3956;50.558;9.678;2023-03-01T12:46:13;5.80;1.00
7822;DHT22;3956;50.558;9.678;2023-03-01T12:48:52;5.60;1.00
7822;DHT22;3956;50.558;9.678;2023-03-01T12:51:34;5.90;1.00
7822;DHT22;3956;50.558;9.678;2023-03-01T12:54:16;5.90;1.00
7822;DHT22;3956;50.558;9.678;2023-03-01T12:56:47;5.90;1.00
7822;DHT22;3956;50.558;9.678;2023-03-01T12:59:27;6.00;1.00
7822;DHT22;3956;50.558;9.678;2023-03-01T13:02:08;7.20;1.00
7822;DHT22;3956;50.558;9.678;2023-03-01T13:04:50;6.60;1.00
7822;DHT22;3956;50.558;9.678;2023-03-01T13:07:37;6.00;1.00
7822;DHT22;3956;50.558;9.678;2023-03-01T13:10:39;5.90;1.00
7822;DHT22;3956;50.558;9.678;2023-03-01T13:13:38;6.00;1.00
7822;DHT22;3956;50.558;9.678;2023-03-01T13:16:39;6.00;1.00
7822;DHT22;3956;50.558;9.678;2023-03-01T13:19:13;5.90;1.00
7822;DHT22;3956;50.558;9.678;2023-03-01T13:28:54;5.80;1.00
7822;DHT22;3956;50.558;9.678;2023-03-01T13:34:52;5.70;1.00
7822;DHT22;3956;50.558;9.678;2023-03-01T13:37:32;5.70;1.00
7822;DHT22;3956;50.558;9.678;2023-03-01T13:40:56;5.70;1.00
7822;DHT22;3956;50.558;9.678;2023-03-01T13:43:34;5.40;1.00
7822;DHT22;3956;50.558;9.678;2023-03-01T13:46:16;5.40;1.00
7822;DHT22;3956;50.558;9.678;2023-03-01T13:48:49;5.60;1.00
7822;DHT22;3956;50.558;9.678;2023-03-01T13:51:26;5.70;1.00
7822;DHT22;3956;50.558;9.678;2023-03-01T13:54:00;5.30;1.00
7822;DHT22;3956;50.558;9.678;2023-03-01T13:56:53;5.40;1.00
7822;DHT22;3956;50.558;9.678;2023-03-01T13:59:26;5.50;1.00
7822;DHT22;3956;50.558;9.678;2023-03-01T14:02:01;5.70;1.00
7822;DHT22;3956;50.558;9.678;2023-03-01T14:04:33;5.50;1.00
7822;DHT22;3956;50.558;9.678;2023-03-01T14:07:11;5.40;1.00
7822;DHT22;3956;50.558;9.678;2023-03-01T14:09:47;5.40;1.00
7822;DHT22;3956;50.558;9.678;2023-03-01T14:12:58;5.50;1.00
7822;DHT22;3956;50.558;9.678;2023-03-01T14:16:12;5.20;1.00
7822;DHT22;3956;50.558;9.678;2023-03-01T14:19:02;5.10;1.00
7822;DHT22;3956;50.558;9.678;2023-03-01T14:22:20;5.20;1.00
7822;DHT22;3956;50.558;9.678;2023-03-01T14:25:19;5.40;1.00
7822;DHT22;3956;50.558;9.678;2023-03-01T14:27:55;5.20;1.00
7822;DHT22;3956;50.558;9.678;2023-03-01T14:30:34;5.30;1.00
7822;DHT22;3956;50.558;9.678;2023-03-01T14:33:26;5.20;1.00
7822;DHT22;3956;50.558;9.678;2023-03-01T14:35:58;5.30;1.00
7822;DHT22;3956;50.558;9.678;2023-03-01T14:38:36;5.10;1.00
7822;DHT22;3956;50.558;9.678;2023-03-01T14:41:08;5.20;1.00
7822;DHT22;3956;50.558;9.678;2023-03-01T14:43:38;5.30;1.00
7822;DHT22;3956;50.558;9.678;2023-03-01T14:46:19;5.40;1.00
7822;DHT22;3956;50.558;9.678;2023-03-01T14:49:04;5.40;1.00
7822;DHT22;3956;50.558;9.678;2023-03-01T14:51:42;5.40;1.00
7822;DHT22;3956;50.558;9.678;2023-03-01T14:54:39;5.30;1.00
7822;DHT22;3956;50.558;9.678;2023-03-01T14:57:17;5.40;1.00
7822;DHT22;3956;50.558;9.678;2023-03-01T14:59:58;5.30;1.00
7822;DHT22;3956;50.558;9.678;2023-03-01T15:02:47;5.40;1.00
7822;DHT22;3956;50.558;9.678;2023-03-01T15:05:21;5.00;1.00
7822;DHT22;3956;50.558;9.678;2023-03-01T15:07:52;5.00;1.00
7822;DHT22;3956;50.558;9.678;2023-03-01T15:10:25;5.20;1.00
7822;DHT22;3956;50.558;9.678;2023-03-01T15:13:11;5.10;1.00
7822;DHT22;3956;50.558;9.678;2023-03-01T15:15:42;5.30;1.00
7822;DHT22;3956;50.558;9.678;2023-03-01T15:18:20;5.10;1.00
7822;DHT22;3956;50.558;9.678;2023-03-01T15:21:23;5.00;1.00
7822;DHT22;3956;50.558;9.678;2023-03-01T15:24:25;4.90;1.00
7822;DHT22;3956;50.558;9.678;2023-03-01T15:27:00;4.90;1.00
7822;DHT22;3956;50.558;9.678;2023-03-01T15:29:54;4.80;1.00
7822;DHT22;3956;50.558;9.678;2023-03-01T15:32:27;4.90;1.00
7822;DHT22;3956;50.558;9.678;2023-03-01T15:34:58;4.80;1.00
7822;DHT22;3956;50.558;9.678;2023-03-01T15:37:45;4.80;1.00
7822;DHT22;3956;50.558;9.678;2023-03-01T15:40:55;4.80;1.00
7822;DHT22;3956;50.558;9.678;2023-03-01T15:50:16;4.70;1.00
7822;DHT22;3956;50.558;9.678;2023-03-01T15:53:27;4.60;1.00
7822;DHT22;3956;50.558;9.678;2023-03-01T15:55:56;4.60;1.00
7822;DHT22;3956;50.558;9.678;2023-03-01T15:58:25;4.50;1.00
7822;DHT22;3956;50.558;9.678;2023-03-01T16:00:56;4.50;1.00
7822;DHT22;3956;50.558;9.678;2023-03-01T16:03:39;4.50;1.00
7822;DHT22;3956;50.558;9.678;2023-03-01T16:13:16;4.30;1.00
7822;DHT22;3956;50.558;9.678;2023-03-01T16:15:50;4.30;1.00
7822;DHT22;3956;50.558;9.678;2023-03-01T16:19:01;4.40;1.00
7822;DHT22;3956;50.558;9.678;2023-03-01T16:21:56;4.30;1.00
7822;DHT22;3956;50.558;9.678;2023-03-01T16:24:29;4.30;1.00
7822;DHT22;3956;50.558;9.678;2023-03-01T16:27:14;4.20;1.00
7822;DHT22;3956;50.558;9.678;2023-03-01T16:30:30;4.20;1.00
7822;DHT22;3956;50.558;9.678;2023-03-01T16:33:06;4.10;1.00
7822;DHT22;3956;50.558;9.678;2023-03-01T16:36:07;4.00;1.00
7822;DHT22;3956;50.558;9.678;2023-03-01T16:38:46;3.90;1.00
7822;DHT22;3956;50.558;9.678;2023-03-01T16:42:29;3.80;1.00
7822;DHT22;3956;50.558;9.678;2023-03-01T16:45:48;3.70;1.00
7822;DHT22;3956;50.558;9.678;2023-03-01T16:48:16;3.70;1.00
7822;DHT22;3956;50.558;9.678;2023-03-01T16:50:44;3.60;1.00
7822;DHT22;3956;50.558;9.678;2023-03-01T16:53:12;3.50;1.00
7822;DHT22;3956;50.558;9.678;2023-03-01T16:55:41;3.50;1.00
7822;DHT22;3956;50.558;9.678;2023-03-01T16:58:13;3.50;1.00
7822;DHT22;3956;50.558;9.678;2023-03-01T17:00:47;3.40;1.00
7822;DHT22;3956;50.558;9.678;2023-03-01T17:03:28;3.40;1.00
7822;DHT22;3956;50.558;9.678;2023-03-01T17:09:37;3.20;1.00
7822;DHT22;3956;50.558;9.678;2023-03-01T17:12:15;3.10;1.00
7822;DHT22;3956;50.558;9.678;2023-03-01T17:14:49;3.10;1.00
7822;DHT22;3956;50.558;9.678;2023-03-01T17:21:17;3.00;1.00
7822;DHT22;3956;50.558;9.678;2023-03-01T17:23:46;2.90;1.00
7822;DHT22;3956;50.558;9.678;2023-03-01T17:26:17;2.90;1.00
7822;DHT22;3956;50.558;9.678;2023-03-01T17:28:50;2.80;1.00
7822;DHT22;3956;50.558;9.678;2023-03-01T17:31:23;2.80;1.00
7822;DHT22;3956;50.558;9.678;2023-03-01T17:34:04;2.70;1.00
7822;DHT22;3956;50.558;9.678;2023-03-01T17:36:34;2.70;1.00
7822;DHT22;3956;50.558;9.678;2023-03-01T17:39:12;2.60;1.00
7822;DHT22;3956;50.558;9.678;2023-03-01T17:42:17;2.60;1.00
7822;DHT22;3956;50.558;9.678;2023-03-01T17:45:10;2.60;1.00
7822;DHT22;3956;50.558;9.678;2023-03-01T17:47:41;2.50;1.00
7822;DHT22;3956;50.558;9.678;2023-03-01T17:50:10;2.50;1.00
7822;DHT22;3956;50.558;9.678;2023-03-01T17:52:41;2.50;1.00
7822;DHT22;3956;50.558;9.678;2023-03-01T17:55:10;2.40;1.00
7822;DHT22;3956;50.558;9.678;2023-03-01T17:57:39;2.40;1.00
7822;DHT22;3956;50.558;9.678;2023-03-01T18:00:16;2.30;1.00
7822;DHT22;3956;50.558;9.678;2023-03-01T18:03:20;2.30;1.00
7822;DHT22;3956;50.558;9.678;2023-03-01T18:09:30;2.30;1.00
7822;DHT22;3956;50.558;9.678;2023-03-01T18:12:07;2.20;1.00
7822;DHT22;3956;50.558;9.678;2023-03-01T18:14:39;2.20;1.00
7822;DHT22;3956;50.558;9.678;2023-03-01T18:17:08;2.20;1.00
7822;DHT22;3956;50.558;9.678;2023-03-01T18:19:38;2.20;5.90
7822;DHT22;3956;50.558;9.678;2023-03-01T18:22:11;2.20;1.00
7822;DHT22;3956;50.558;9.678;2023-03-01T18:34:50;2.10;1.00
7822;DHT22;3956;50.558;9.678;2023-03-01T18:38:08;2.10;1.00
7822;DHT22;3956;50.558;9.678;2023-03-01T18:41:21;2.00;1.00
7822;DHT22;3956;50.558;9.678;2023-03-01T18:44:28;2.00;1.00
7822;DHT22;3956;50.558;9.678;2023-03-01T18:47:30;2.00;1.00